createdAt,value
2023-05-21T00:00:33.513Z,10.55
2023-05-21T00:03:00.642Z,11.32
2023-05-21T00:05:27.643Z,9.65
2023-05-21T00:07:55.091Z,10.65
2023-05-21T00:10:22.147Z,10.35
2023-05-21T00:12:49.052Z,10.63
2023-05-21T00:15:17.288Z,10.05
2023-05-21T00:17:44.571Z,11.80
2023-05-21T00:20:12.889Z,11.38
2023-05-21T00:22:42.171Z,11.43
2023-05-21T00:25:09.769Z,10.30
2023-05-21T00:27:36.835Z,10.40
2023-05-21T00:30:04.222Z,10.73
2023-05-21T00:32:32.484Z,11.30
2023-05-21T00:34:59.408Z,11.52
2023-05-21T00:37:26.275Z,12.13
2023-05-21T00:39:53.096Z,10.77
2023-05-21T00:42:20.099Z,12.40
2023-05-21T00:44:47.105Z,11.23
2023-05-21T00:47:14.449Z,10.85
2023-05-21T00:49:42.689Z,10.63
2023-05-21T00:52:09.952Z,11.43
2023-05-21T00:54:36.975Z,12.45
2023-05-21T00:57:04.860Z,12.60
2023-05-21T00:59:32.514Z,13.25
2023-05-21T01:02:05.570Z,12.55
2023-05-21T01:04:32.603Z,13.70
2023-05-21T01:07:01.955Z,12.55
2023-05-21T01:09:28.895Z,11.98
2023-05-21T01:11:56.331Z,12.40
2023-05-21T01:14:24.442Z,11.05
2023-05-21T01:16:53.036Z,13.70
2023-05-21T01:19:22.866Z,14.73
2023-05-21T01:21:52.949Z,15.05
2023-05-21T01:24:21.496Z,13.95
2023-05-21T01:26:48.442Z,12.82
2023-05-21T01:29:15.765Z,13.55
2023-05-21T01:31:56.653Z,12.85
2023-05-21T01:34:29.368Z,14.40
2023-05-21T01:37:08.809Z,13.73
2023-05-21T01:39:40.118Z,14.70
2023-05-21T01:42:10.790Z,15.10
2023-05-21T01:44:37.977Z,14.80
2023-05-21T01:47:06.092Z,15.75
2023-05-21T01:49:33.554Z,16.45
2023-05-21T01:52:01.514Z,15.00
2023-05-21T01:54:28.376Z,15.65
2023-05-21T01:56:56.940Z,15.55
2023-05-21T01:59:23.834Z,17.15
2023-05-21T02:01:50.746Z,16.88
2023-05-21T02:04:17.592Z,16.88
2023-05-21T02:06:44.620Z,17.58
2023-05-21T02:09:11.886Z,18.13
2023-05-21T02:11:38.979Z,17.88
2023-05-21T02:14:10.442Z,17.60
2023-05-21T02:16:38.546Z,17.38
2023-05-21T02:19:06.751Z,18.77
2023-05-21T02:21:33.658Z,18.58
2023-05-21T02:24:00.530Z,17.65
2023-05-21T02:26:27.535Z,18.58
2023-05-21T02:28:55.514Z,18.73
2023-05-21T02:31:23.795Z,19.00
2023-05-21T02:33:50.737Z,18.85
2023-05-21T02:36:18.997Z,19.08
2023-05-21T02:38:46.639Z,18.77
2023-05-21T02:41:13.925Z,20.35
2023-05-21T02:43:40.980Z,21.17
2023-05-21T02:46:07.968Z,20.23
2023-05-21T02:48:36.330Z,20.33
2023-05-21T02:51:03.373Z,21.90
2023-05-21T02:53:30.465Z,22.20
2023-05-21T02:55:57.321Z,21.67
2023-05-21T02:58:25.326Z,22.85
2023-05-21T03:00:53.249Z,23.13
2023-05-21T03:03:20.328Z,24.40
2023-05-21T03:05:48.944Z,24.05
2023-05-21T03:08:15.916Z,23.88
2023-05-21T03:10:42.854Z,23.58
2023-05-21T03:13:10.172Z,22.85
2023-05-21T03:15:38.940Z,25.10
2023-05-21T03:18:06.223Z,24.85
2023-05-21T03:20:33.571Z,21.67
2023-05-21T03:23:04.398Z,23.58
2023-05-21T03:25:31.593Z,23.80
2023-05-21T03:27:58.660Z,26.33
2023-05-21T03:30:25.562Z,26.02
2023-05-21T03:32:52.609Z,26.08
2023-05-21T03:35:19.640Z,28.20
2023-05-21T03:37:46.570Z,29.05
2023-05-21T03:40:15.519Z,28.50
2023-05-21T03:42:42.554Z,29.05
2023-05-21T03:45:10.032Z,30.25
2023-05-21T03:47:36.878Z,27.38
2023-05-21T03:50:05.867Z,26.73
2023-05-21T03:52:32.916Z,28.65
2023-05-21T03:54:59.754Z,29.63
2023-05-21T03:57:28.312Z,29.58
2023-05-21T03:59:56.026Z,30.23
2023-05-21T04:02:23.354Z,31.35
2023-05-21T04:04:51.721Z,31.83
2023-05-21T04:07:19.292Z,30.80
2023-05-21T04:09:46.865Z,30.70
2023-05-21T04:12:14.242Z,29.70
2023-05-21T04:14:42.509Z,32.42
2023-05-21T04:17:09.797Z,30.55
2023-05-21T04:19:36.856Z,30.65
2023-05-21T04:22:04.021Z,31.73
2023-05-21T04:24:31.123Z,31.25
2023-05-21T04:27:01.351Z,28.65
2023-05-21T04:29:29.911Z,30.85
2023-05-21T04:31:58.134Z,30.48
2023-05-21T04:34:25.007Z,29.80
2023-05-21T04:36:52.081Z,29.13
2023-05-21T04:39:18.920Z,28.23
2023-05-21T04:41:45.813Z,29.40
2023-05-21T04:44:14.975Z,28.95
2023-05-21T04:46:42.811Z,28.83
2023-05-21T04:49:11.645Z,27.92
2023-05-21T04:51:38.503Z,27.67
2023-05-21T04:54:05.407Z,27.92
2023-05-21T04:56:32.256Z,27.38
2023-05-21T04:58:59.347Z,25.42
2023-05-21T05:01:27.422Z,23.88
2023-05-21T05:03:55.600Z,23.63
2023-05-21T05:06:26.007Z,25.17
2023-05-21T05:08:52.934Z,24.00
2023-05-21T05:11:19.871Z,23.50
2023-05-21T05:13:46.754Z,24.27
2023-05-21T05:16:14.584Z,21.60
2023-05-21T05:18:41.673Z,22.25
2023-05-21T05:21:08.624Z,19.85
2023-05-21T05:23:36.936Z,20.13
2023-05-21T05:26:03.795Z,18.95
2023-05-21T05:28:30.633Z,18.50
2023-05-21T05:30:57.506Z,15.63
2023-05-21T05:33:24.427Z,15.95
2023-05-21T05:35:51.348Z,14.32
2023-05-21T05:38:18.223Z,14.68
2023-05-21T05:40:46.579Z,14.57
2023-05-21T05:43:13.522Z,13.55
2023-05-21T05:45:40.459Z,14.32
2023-05-21T05:48:07.345Z,13.48
2023-05-21T05:50:34.266Z,13.90
2023-05-21T05:53:01.194Z,12.90
2023-05-21T05:55:28.069Z,11.88
2023-05-21T05:57:56.301Z,13.00
2023-05-21T06:00:23.183Z,13.43
2023-05-21T06:02:50.154Z,12.38
2023-05-21T06:05:17.238Z,12.73
2023-05-21T06:07:44.311Z,11.95
2023-05-21T06:10:11.179Z,12.20
2023-05-21T06:12:38.116Z,11.32
2023-05-21T06:15:07.613Z,12.98
2023-05-21T06:17:34.618Z,11.63
2023-05-21T06:20:01.574Z,10.93
2023-05-21T06:22:28.373Z,10.20
2023-05-21T06:24:55.264Z,10.20
2023-05-21T06:27:22.207Z,9.02
2023-05-21T06:29:49.084Z,9.70
2023-05-21T06:32:17.395Z,8.93
2023-05-21T06:34:44.369Z,9.10
2023-05-21T06:37:11.315Z,8.68
2023-05-21T06:39:38.295Z,7.05
2023-05-21T06:42:05.749Z,8.02
2023-05-21T06:44:32.672Z,7.55
2023-05-21T06:46:59.574Z,8.30
2023-05-21T06:49:27.935Z,6.90
2023-05-21T06:51:54.809Z,6.82
2023-05-21T06:54:21.784Z,7.78
2023-05-21T06:56:48.922Z,7.22
2023-05-21T06:59:16.187Z,7.20
2023-05-21T07:01:44.205Z,7.55
2023-05-21T07:04:11.400Z,7.38
2023-05-21T07:06:40.315Z,6.85
2023-05-21T07:09:07.338Z,8.70
2023-05-21T07:11:34.226Z,7.40
2023-05-21T07:14:02.160Z,7.82
2023-05-21T07:16:29.030Z,7.40
2023-05-21T07:18:56.103Z,8.13
2023-05-21T07:21:23.113Z,6.30
2023-05-21T07:23:51.577Z,7.55
2023-05-21T07:26:18.611Z,6.97
2023-05-21T07:28:45.574Z,6.80
2023-05-21T07:31:12.799Z,7.38
2023-05-21T07:33:40.108Z,6.97
2023-05-21T07:36:07.353Z,6.95
2023-05-21T07:38:34.663Z,6.90
2023-05-21T07:41:03.004Z,6.43
2023-05-21T07:43:31.747Z,7.32
2023-05-21T07:45:58.698Z,6.93
2023-05-21T07:48:27.009Z,6.40
2023-05-21T07:50:54.013Z,6.88
2023-05-21T07:53:20.936Z,6.78
2023-05-21T07:55:48.208Z,6.43
2023-05-21T07:58:18.963Z,6.10
2023-05-21T08:00:47.585Z,6.85
2023-05-21T08:03:16.505Z,6.85
2023-05-21T08:05:44.936Z,7.18
2023-05-21T08:08:12.908Z,6.22
2023-05-21T08:10:40.011Z,6.38
2023-05-21T08:13:06.894Z,6.43
2023-05-21T08:15:35.344Z,5.65
2023-05-21T08:18:02.515Z,6.50
2023-05-21T08:20:31.048Z,7.15
2023-05-21T08:22:58.133Z,6.30
2023-05-21T08:25:25.043Z,5.93
2023-05-21T08:27:52.525Z,5.28
2023-05-21T08:30:19.878Z,5.90
2023-05-21T08:32:49.063Z,6.30
2023-05-21T08:35:16.753Z,5.75
2023-05-21T08:37:43.685Z,6.65
2023-05-21T08:40:12.413Z,5.60
2023-05-21T08:42:43.942Z,6.07
2023-05-21T08:45:13.256Z,6.28
2023-05-21T08:47:43.627Z,6.10
2023-05-21T08:50:13.488Z,5.38
2023-05-21T08:52:40.569Z,6.30
2023-05-21T08:55:08.777Z,5.07
2023-05-21T08:57:36.839Z,5.38
2023-05-21T09:00:05.557Z,4.90
2023-05-21T09:02:34.376Z,5.72
2023-05-21T09:05:03.420Z,6.00
2023-05-21T09:07:34.478Z,5.00
2023-05-21T09:10:05.252Z,4.88
2023-05-21T09:12:32.921Z,5.68
2023-05-21T09:15:00.544Z,5.05
2023-05-21T09:17:27.763Z,5.38
2023-05-21T09:20:16.265Z,5.70
2023-05-21T09:22:46.116Z,6.03
2023-05-21T09:25:13.985Z,5.15
2023-05-21T09:27:41.110Z,5.63
2023-05-21T09:30:11.336Z,5.75
2023-05-21T09:32:38.646Z,6.72
2023-05-21T09:35:10.249Z,5.88
2023-05-21T09:37:40.993Z,6.53
2023-05-21T09:40:15.342Z,6.63
2023-05-21T09:42:46.267Z,6.22
2023-05-21T09:45:17.457Z,6.35
2023-05-21T09:47:45.565Z,5.90
2023-05-21T09:50:13.259Z,5.90
2023-05-21T09:52:42.094Z,5.93
2023-05-21T09:55:13.494Z,6.03
2023-05-21T09:57:41.641Z,6.95
2023-05-21T10:00:10.766Z,6.15
2023-05-21T10:02:44.658Z,5.95
2023-05-21T10:05:13.770Z,6.72
2023-05-21T10:07:42.503Z,6.82
2023-05-21T10:10:16.977Z,7.28
2023-05-21T10:12:46.060Z,6.25
2023-05-21T10:15:22.594Z,6.05
2023-05-21T10:17:50.000Z,5.93
2023-05-21T10:20:17.489Z,6.35
2023-05-21T10:22:44.914Z,5.88
2023-05-21T10:25:15.781Z,6.85
2023-05-21T10:27:43.190Z,6.45
2023-05-21T10:30:10.909Z,7.07
2023-05-21T10:32:42.077Z,5.93
2023-05-21T10:35:10.121Z,7.57
2023-05-21T10:37:37.063Z,7.07
2023-05-21T10:40:04.638Z,6.97
2023-05-21T10:42:59.283Z,8.20
2023-05-21T10:45:40.244Z,7.35
2023-05-21T10:48:25.066Z,7.28
2023-05-21T10:51:13.882Z,8.35
2023-05-21T10:54:01.449Z,8.75
2023-05-21T10:56:33.006Z,7.80
2023-05-21T10:59:35.016Z,8.30
2023-05-21T11:02:03.820Z,7.97
2023-05-21T11:04:30.851Z,7.82
2023-05-21T11:06:59.280Z,7.60
2023-05-21T11:09:27.027Z,7.57
2023-05-21T11:11:58.293Z,6.60
2023-05-21T11:14:39.661Z,9.05
2023-05-21T11:17:15.020Z,9.48
2023-05-21T11:19:43.530Z,9.70
2023-05-21T11:22:24.730Z,8.70
2023-05-21T11:24:52.545Z,8.98
2023-05-21T11:27:34.827Z,8.50
2023-05-21T11:30:06.705Z,8.95
2023-05-21T11:32:37.176Z,8.85
2023-05-21T11:35:04.563Z,8.05
2023-05-21T11:37:34.575Z,9.40
2023-05-21T11:40:22.854Z,9.27
2023-05-21T11:42:52.832Z,9.50
2023-05-21T11:45:22.189Z,8.93
2023-05-21T11:47:49.886Z,9.18
2023-05-21T11:50:17.585Z,8.38
2023-05-21T11:52:44.846Z,7.88
2023-05-21T11:55:12.067Z,9.85
2023-05-21T11:57:42.194Z,8.57
2023-05-21T12:00:15.337Z,7.88
2023-05-21T12:02:50.663Z,7.63
2023-05-21T12:05:17.595Z,8.40
2023-05-21T12:07:48.693Z,8.55
2023-05-21T12:10:15.852Z,7.97
2023-05-21T12:12:53.793Z,8.77
2023-05-21T12:15:24.348Z,8.05
2023-05-21T12:17:53.268Z,7.68
2023-05-21T12:20:20.900Z,7.95
2023-05-21T12:22:48.968Z,7.95
2023-05-21T12:25:19.861Z,7.20
2023-05-21T12:27:46.920Z,7.32
2023-05-21T12:30:14.244Z,7.07
2023-05-21T12:32:44.188Z,7.90
2023-05-21T12:35:22.957Z,7.72
2023-05-21T12:37:51.066Z,7.28
2023-05-21T12:40:18.812Z,7.70
2023-05-21T12:42:45.789Z,7.25
2023-05-21T12:45:13.535Z,7.82
2023-05-21T12:47:40.644Z,8.05
2023-05-21T12:50:13.978Z,7.70
2023-05-21T12:55:13.106Z,8.32
2023-05-21T12:57:39.988Z,7.15
2023-05-21T13:00:08.038Z,7.47
2023-05-21T13:02:38.826Z,7.10
2023-05-21T13:05:07.373Z,6.65
2023-05-21T13:07:35.883Z,6.65
2023-05-21T13:10:05.534Z,7.00
2023-05-21T13:12:33.530Z,6.80
2023-05-21T13:15:01.614Z,7.90
2023-05-21T13:17:29.140Z,7.55
2023-05-21T13:20:07.769Z,7.78
2023-05-21T13:22:36.081Z,7.47
2023-05-21T13:25:05.435Z,6.55
2023-05-21T13:27:32.461Z,7.35
2023-05-21T13:29:59.461Z,8.82
2023-05-21T13:32:26.505Z,7.57
2023-05-21T13:34:53.453Z,7.90
2023-05-21T13:37:20.779Z,7.32
2023-05-21T13:39:47.904Z,7.22
2023-05-21T13:42:16.287Z,6.57
2023-05-21T13:44:43.154Z,7.47
2023-05-21T13:47:10.686Z,5.88
2023-05-21T13:49:38.622Z,6.72
2023-05-21T13:52:06.563Z,7.18
2023-05-21T13:54:33.470Z,6.82
2023-05-21T13:57:00.555Z,6.85
2023-05-21T13:59:30.744Z,6.13
2023-05-21T14:01:59.657Z,5.97
2023-05-21T14:04:26.618Z,6.82
2023-05-21T14:06:53.775Z,7.85
2023-05-21T14:09:21.584Z,6.13
2023-05-21T14:11:48.553Z,7.10
2023-05-21T14:14:19.028Z,6.07
2023-05-21T14:16:47.726Z,6.05
2023-05-21T14:19:14.905Z,6.43
2023-05-21T14:21:41.788Z,6.78
2023-05-21T14:24:08.667Z,7.00
2023-05-21T14:26:40.069Z,6.00
2023-05-21T14:29:07.287Z,7.07
2023-05-21T14:31:34.319Z,5.85
2023-05-21T14:34:07.880Z,6.28
2023-05-21T14:39:01.661Z,5.88
2023-05-21T14:41:29.200Z,4.90
2023-05-21T14:43:56.235Z,5.95
2023-05-21T14:46:23.337Z,5.85
2023-05-21T14:48:50.324Z,5.78
2023-05-21T14:51:19.315Z,5.75
2023-05-21T14:53:46.213Z,5.20
2023-05-21T14:56:13.095Z,5.97
2023-05-21T14:58:39.979Z,5.10
2023-05-21T15:01:07.113Z,5.80
2023-05-21T15:03:34.197Z,5.75
2023-05-21T15:06:01.098Z,7.95
2023-05-21T15:08:29.418Z,7.07
2023-05-21T15:10:57.131Z,7.38
2023-05-21T15:13:23.982Z,9.77
2023-05-21T15:15:51.259Z,5.75
2023-05-21T15:18:18.209Z,6.40
2023-05-21T15:20:45.157Z,6.20
2023-05-21T15:23:17.168Z,7.53
2023-05-21T15:25:46.169Z,5.80
2023-05-21T15:28:13.181Z,6.78
2023-05-21T15:30:40.381Z,6.78
2023-05-21T15:33:07.250Z,6.95
2023-05-21T15:35:35.457Z,5.57
2023-05-21T15:38:02.891Z,5.13
2023-05-21T15:40:29.872Z,5.75
2023-05-21T15:42:58.326Z,5.60
2023-05-21T15:45:25.436Z,6.18
2023-05-21T15:47:53.079Z,5.53
2023-05-21T15:50:19.967Z,5.45
2023-05-21T15:52:46.844Z,5.60
2023-05-21T15:55:14.326Z,5.50
2023-05-21T15:57:41.270Z,5.47
2023-05-21T16:00:11.215Z,5.93
2023-05-21T16:02:38.178Z,5.82
2023-05-21T16:05:05.581Z,5.20
2023-05-21T16:07:32.402Z,5.72
2023-05-21T16:09:59.240Z,5.88
2023-05-21T16:12:26.472Z,5.47
2023-05-21T16:14:53.386Z,6.60
2023-05-21T16:17:21.684Z,5.68
2023-05-21T16:19:48.571Z,6.00
2023-05-21T16:22:15.610Z,5.55
2023-05-21T16:24:42.630Z,6.38
2023-05-21T16:27:09.569Z,5.47
2023-05-21T16:29:38.166Z,5.90
2023-05-21T16:32:06.694Z,5.70
2023-05-21T16:34:36.364Z,5.13
2023-05-21T16:37:03.420Z,6.13
2023-05-21T16:39:30.336Z,6.50
2023-05-21T16:41:59.748Z,6.03
2023-05-21T16:44:27.263Z,5.82
2023-05-21T16:46:54.349Z,6.03
2023-05-21T16:49:21.377Z,5.82
2023-05-21T16:51:49.715Z,6.80
2023-05-21T16:54:16.757Z,5.72
2023-05-21T16:56:43.635Z,6.28
2023-05-21T16:59:10.637Z,6.00
2023-05-21T17:01:37.677Z,6.00
2023-05-21T17:04:04.926Z,6.43
2023-05-21T17:06:31.905Z,5.68
2023-05-21T17:09:00.179Z,5.60
2023-05-21T17:11:27.137Z,5.53
2023-05-21T17:13:54.020Z,5.82
2023-05-21T17:16:21.000Z,6.53
2023-05-21T17:18:47.960Z,5.80
2023-05-21T17:21:14.823Z,5.00
2023-05-21T17:23:43.002Z,5.20
2023-05-21T17:26:11.386Z,5.80
2023-05-21T17:28:38.366Z,5.05
2023-05-21T17:31:08.615Z,6.28
2023-05-21T17:33:36.446Z,5.38
2023-05-21T17:36:03.666Z,5.43
2023-05-21T17:38:30.553Z,5.53
2023-05-21T17:40:58.913Z,5.38
2023-05-21T17:43:27.790Z,5.43
2023-05-21T17:45:54.787Z,6.30
2023-05-21T17:48:21.989Z,6.75
2023-05-21T17:50:48.943Z,6.45
2023-05-21T17:53:16.485Z,5.70
2023-05-21T17:55:43.512Z,6.75
2023-05-21T17:58:10.512Z,5.55
2023-05-21T18:00:38.773Z,5.43
2023-05-21T18:03:05.826Z,5.55
2023-05-21T18:05:32.789Z,6.70
2023-05-21T18:08:01.196Z,5.30
2023-05-21T18:10:28.312Z,5.50
2023-05-21T18:12:55.416Z,4.90
2023-05-21T18:15:22.388Z,6.18
2023-05-21T18:17:50.684Z,5.82
2023-05-21T18:20:17.705Z,5.22
2023-05-21T18:22:44.880Z,5.07
2023-05-21T18:25:11.897Z,5.72
2023-05-21T18:27:38.789Z,6.03
2023-05-21T18:30:07.080Z,5.93
2023-05-21T18:32:34.599Z,6.13
2023-05-21T18:35:03.117Z,4.60
2023-05-21T18:37:29.942Z,5.35
2023-05-21T18:39:56.874Z,5.63
2023-05-21T18:42:23.812Z,5.50
2023-05-21T18:44:51.504Z,6.35
2023-05-21T18:47:18.515Z,5.85
2023-05-21T18:49:45.453Z,6.15
2023-05-21T18:52:14.131Z,5.53
2023-05-21T18:54:41.027Z,5.38
2023-05-21T18:57:07.867Z,6.25
2023-05-21T18:59:34.729Z,6.07
2023-05-21T19:02:01.675Z,5.20
2023-05-21T19:04:28.833Z,5.35
2023-05-21T19:06:55.968Z,6.38
2023-05-21T19:09:24.536Z,6.80
2023-05-21T19:11:51.747Z,5.55
2023-05-21T19:14:20.318Z,5.57
2023-05-21T19:16:47.293Z,6.10
2023-05-21T19:19:14.265Z,5.93
2023-05-21T19:21:41.414Z,7.00
2023-05-21T19:24:08.439Z,6.53
2023-05-21T19:26:36.905Z,6.65
2023-05-21T19:29:03.871Z,5.88
2023-05-21T19:31:30.900Z,5.28
2023-05-21T19:33:57.810Z,5.53
2023-05-21T19:36:24.769Z,6.15
2023-05-21T19:38:51.794Z,6.60
2023-05-21T19:41:19.945Z,6.18
2023-05-21T19:43:48.278Z,5.97
2023-05-21T19:46:19.117Z,6.35
2023-05-21T19:48:47.121Z,6.70
2023-05-21T19:51:14.115Z,6.60
2023-05-21T19:53:40.966Z,5.97
2023-05-21T19:56:08.065Z,5.95
2023-05-21T19:58:34.963Z,5.10
2023-05-21T20:01:03.708Z,5.72
2023-05-21T20:03:35.862Z,5.22
2023-05-21T20:06:02.985Z,5.85
2023-05-21T20:08:30.156Z,5.68
2023-05-21T20:10:57.269Z,6.22
2023-05-21T20:13:24.491Z,6.03
2023-05-21T20:15:51.621Z,6.57
2023-05-21T20:18:22.721Z,5.85
2023-05-21T20:20:49.642Z,6.85
2023-05-21T20:23:16.672Z,6.82
2023-05-21T20:25:43.726Z,5.82
2023-05-21T20:28:10.791Z,6.40
2023-05-21T20:30:54.066Z,6.22
2023-05-21T20:33:22.459Z,6.83
2023-05-21T20:35:49.523Z,6.70
2023-05-21T20:38:17.342Z,7.97
2023-05-21T20:40:44.621Z,7.20
2023-05-21T20:43:13.758Z,6.97
2023-05-21T20:45:41.879Z,6.85
2023-05-21T20:48:09.965Z,7.35
2023-05-21T20:50:38.913Z,6.18
2023-05-21T20:53:06.384Z,7.63
2023-05-21T20:55:34.872Z,8.65
2023-05-21T20:58:02.618Z,8.60
2023-05-21T21:00:29.768Z,8.07
2023-05-21T21:02:58.365Z,7.93
2023-05-21T21:05:25.462Z,8.25
2023-05-21T21:07:55.884Z,9.38
2023-05-21T21:10:23.184Z,9.23
2023-05-21T21:12:50.079Z,9.13
2023-05-21T21:15:17.149Z,9.05
2023-05-21T21:17:44.338Z,8.65
2023-05-21T21:20:13.759Z,10.15
2023-05-21T21:22:41.291Z,8.90
2023-05-21T21:25:10.405Z,9.57
2023-05-21T21:27:37.430Z,8.48
2023-05-21T21:30:04.976Z,9.60
2023-05-21T21:32:31.951Z,9.00
2023-05-21T21:34:58.920Z,9.93
2023-05-21T21:37:25.874Z,8.85
2023-05-21T21:39:53.577Z,9.20
2023-05-21T21:42:21.919Z,10.02
2023-05-21T21:44:48.885Z,9.30
2023-05-21T21:47:15.766Z,10.57
2023-05-21T21:49:42.747Z,10.05
2023-05-21T21:52:10.858Z,10.18
2023-05-21T21:54:37.710Z,9.77
2023-05-21T21:57:04.883Z,10.07
2023-05-21T21:59:33.931Z,10.88
2023-05-21T22:02:01.141Z,11.02
2023-05-21T22:04:28.308Z,11.85
2023-05-21T22:06:55.218Z,12.20
2023-05-21T22:09:22.705Z,11.90
2023-05-21T22:11:49.681Z,12.00
2023-05-21T22:14:18.275Z,13.30
2023-05-21T22:16:47.661Z,14.25
2023-05-21T22:19:16.152Z,11.55
2023-05-21T22:21:43.314Z,12.82
2023-05-21T22:24:20.639Z,13.18
2023-05-21T22:26:57.222Z,12.90
2023-05-21T22:29:24.090Z,13.68
2023-05-21T22:31:52.578Z,12.02
2023-05-21T22:34:19.428Z,12.25
2023-05-21T22:36:47.004Z,13.45
2023-05-21T22:39:14.184Z,12.88
2023-05-21T22:41:41.205Z,12.68
2023-05-21T22:44:08.101Z,12.60
2023-05-21T22:46:35.587Z,13.38
2023-05-21T22:49:03.913Z,12.77
2023-05-21T22:51:34.750Z,12.55
2023-05-21T22:54:02.020Z,13.02
2023-05-21T22:56:29.022Z,12.80
2023-05-21T22:58:56.303Z,14.68
2023-05-21T23:01:23.590Z,14.75
2023-05-21T23:03:51.460Z,15.68
2023-05-21T23:06:19.739Z,16.58
2023-05-21T23:08:46.796Z,16.50
2023-05-21T23:11:13.624Z,17.63
2023-05-21T23:13:40.494Z,17.88
2023-05-21T23:16:07.523Z,18.23
2023-05-21T23:18:35.128Z,18.20
2023-05-21T23:21:02.432Z,18.52
2023-05-21T23:23:31.055Z,18.95
2023-05-21T23:25:59.047Z,19.65
2023-05-21T23:28:26.587Z,21.35
2023-05-21T23:30:53.820Z,21.48
2023-05-21T23:33:20.837Z,22.05
2023-05-21T23:35:47.763Z,19.88
2023-05-21T23:38:14.633Z,22.30
2023-05-21T23:40:43.471Z,23.10
2023-05-21T23:43:10.391Z,22.85
2023-05-21T23:45:37.355Z,21.42
2023-05-21T23:48:04.570Z,24.10
2023-05-21T23:50:31.436Z,25.50
2023-05-21T23:52:58.722Z,25.35
2023-05-21T23:55:25.648Z,25.27
2023-05-21T23:57:53.949Z,24.50
